Disclaimer

Please do not use the information listed here in-flight or in-navigation, as they are not provided to us by the airports but are provided by volunteers, so they might be outdated.

Search


Regions


Airport information page

Radio informations:
PUERTO PLATA TWR - 118.0 MHz
Ground (GND) - 121.9 MHz
PUERTO PLATA APP - 119.0 MHz

Airport informations:
Latitude: 19° 45' 28.44" N
Longitude: 070° 34' 12.12" W
Elevation: 15 feet - 5 meters
Operating hours: N/A
Operating agency: Military-civil joint use airport
Timezone: UTC-4
Fuel: Jet A1, without icing nhibitor.

100/130 MIL Spec, low lead, aviation gasoline (BLUE)

Runway information:
08/26 - 10108 x 151 feet< - >3081 x 46 meters

Recent METARs:
MDPP 162300Z 09010KT 9999 FEW020 27/24 Q1013
MDPP 170000Z 10010KT 9999 FEW020 27/24 Q1013
MDPP 170000Z 10010KT 9999 FEW020 27/24 Q1013

Airport on the map: